createdAt,value
2022-09-21T00:00:45.231Z,9.07
2022-09-21T00:03:45.661Z,9.05
2022-09-21T00:06:59.575Z,9.01
2022-09-21T00:09:40.388Z,8.99
2022-09-21T00:12:51.171Z,8.97
2022-09-21T00:15:48.728Z,8.93
2022-09-21T00:18:32.065Z,8.92
2022-09-21T00:21:16.327Z,8.90
2022-09-21T00:23:59.861Z,8.90
2022-09-21T00:26:42.807Z,8.89
2022-09-21T00:29:32.085Z,8.88
2022-09-21T00:32:13.522Z,8.87
2022-09-21T00:34:50.845Z,8.87
2022-09-21T00:37:22.486Z,8.86
2022-09-21T00:40:06.434Z,8.84
2022-09-21T00:42:51.064Z,8.80
2022-09-21T00:45:35.849Z,8.80
2022-09-21T00:48:08.900Z,8.79
2022-09-21T00:51:00.996Z,8.80
2022-09-21T00:54:27.915Z,8.78
2022-09-21T00:58:19.932Z,8.73
2022-09-21T01:01:01.478Z,8.69
2022-09-21T01:04:17.978Z,8.70
2022-09-21T01:07:47.840Z,8.66
2022-09-21T01:11:21.691Z,8.65
2022-09-21T01:15:48.248Z,8.63
2022-09-21T01:19:03.118Z,8.62
2022-09-21T01:22:35.307Z,8.65
2022-09-21T01:25:33.784Z,8.67
2022-09-21T01:29:25.800Z,8.68
2022-09-21T01:32:29.788Z,8.65
2022-09-21T01:35:25.323Z,8.62
2022-09-21T01:38:13.059Z,8.59
2022-09-21T01:41:19.802Z,8.60
2022-09-21T01:44:22.928Z,8.59
2022-09-21T01:47:13.117Z,8.59
2022-09-21T01:49:52.797Z,8.63
2022-09-21T01:53:39.271Z,8.68
2022-09-21T01:56:27.434Z,8.68
2022-09-21T01:59:52.711Z,8.73
2022-09-21T02:02:52.737Z,8.78
2022-09-21T02:05:43.020Z,8.83
2022-09-21T02:08:35.718Z,8.86
2022-09-21T02:11:58.205Z,8.87
2022-09-21T02:15:05.823Z,8.85
2022-09-21T02:18:50.867Z,8.86
2022-09-21T02:22:41.420Z,8.86
2022-09-21T02:26:18.212Z,8.89
2022-09-21T02:30:33.601Z,8.95
2022-09-21T02:34:19.746Z,8.95
2022-09-21T02:37:40.258Z,8.96
2022-09-21T02:40:56.419Z,8.97
2022-09-21T02:44:42.528Z,8.97
2022-09-21T02:48:25.972Z,9.00
2022-09-21T02:52:29.432Z,9.07
2022-09-21T03:05:10.907Z,9.15
2022-09-21T03:08:01.856Z,9.22
2022-09-21T03:11:07.116Z,9.29
2022-09-21T03:13:46.095Z,9.36
2022-09-21T03:16:33.944Z,9.40
2022-09-21T03:19:16.894Z,9.44
2022-09-21T03:22:11.164Z,9.48
2022-09-21T03:25:17.517Z,9.48
2022-09-21T03:27:55.776Z,9.50
2022-09-21T03:30:48.253Z,9.51
2022-09-21T03:33:52.360Z,9.52
2022-09-21T03:37:01.011Z,9.53
2022-09-21T03:39:51.030Z,9.53
2022-09-21T03:42:33.547Z,9.56
2022-09-21T03:46:03.733Z,9.60
2022-09-21T03:49:06.800Z,9.56
2022-09-21T03:51:45.027Z,9.59
2022-09-21T03:54:33.323Z,9.63
2022-09-21T03:57:38.882Z,9.63
2022-09-21T04:00:46.603Z,9.68
2022-09-21T04:03:36.342Z,9.72
2022-09-21T04:06:49.625Z,9.73
2022-09-21T04:09:46.411Z,9.74
2022-09-21T04:12:53.302Z,9.77
2022-09-21T04:15:47.482Z,9.80
2022-09-21T04:18:26.956Z,9.84
2022-09-21T04:21:31.276Z,9.87
2022-09-21T04:25:09.565Z,9.86
2022-09-21T04:28:12.377Z,9.88
2022-09-21T04:31:47.821Z,9.89
2022-09-21T04:34:54.272Z,9.89
2022-09-21T04:38:04.648Z,9.90
2022-09-21T04:41:06.263Z,9.92
2022-09-21T04:44:26.060Z,9.91
2022-09-21T04:48:06.925Z,9.89
2022-09-21T04:52:14.781Z,9.87
2022-09-21T04:56:25.231Z,9.85
2022-09-21T05:08:30.119Z,9.89
2022-09-21T05:11:45.890Z,9.92
2022-09-21T05:14:50.263Z,9.94
2022-09-21T05:18:01.989Z,9.96
2022-09-21T05:21:37.816Z,9.97
2022-09-21T05:28:44.372Z,10.00
2022-09-21T05:31:58.767Z,10.10
2022-09-21T05:39:01.808Z,10.21
2022-09-21T05:42:01.877Z,10.27
2022-09-21T05:51:58.701Z,10.48
2022-09-21T05:56:05.266Z,10.52
2022-09-21T05:59:55.796Z,10.54
2022-09-21T06:03:08.020Z,10.59
2022-09-21T06:05:53.792Z,10.68
2022-09-21T06:09:11.967Z,10.79
2022-09-21T06:12:02.090Z,10.83
2022-09-21T06:14:55.373Z,10.90
2022-09-21T06:18:18.231Z,10.96
2022-09-21T06:21:12.128Z,10.97
2022-09-21T06:24:28.023Z,11.03
2022-09-21T06:27:17.543Z,11.08
2022-09-21T06:31:01.519Z,11.12
2022-09-21T06:33:31.691Z,11.16
2022-09-21T06:36:25.665Z,11.18
2022-09-21T06:39:07.728Z,11.25
2022-09-21T06:42:05.236Z,11.33
2022-09-21T06:44:49.893Z,11.41
2022-09-21T06:47:26.117Z,11.47
2022-09-21T06:50:13.241Z,11.53
2022-09-21T06:52:52.270Z,11.55
2022-09-21T06:55:36.653Z,11.60
2022-09-21T06:58:22.906Z,11.64
2022-09-21T07:01:17.996Z,11.72
2022-09-21T07:04:05.052Z,11.78
2022-09-21T07:07:12.690Z,11.83
2022-09-21T07:10:13.158Z,11.87
2022-09-21T07:13:07.971Z,11.89
2022-09-21T07:15:54.582Z,11.93
2022-09-21T07:18:42.583Z,11.99
2022-09-21T07:21:23.846Z,12.06
2022-09-21T07:23:56.929Z,12.12
2022-09-21T07:26:29.427Z,12.17
2022-09-21T07:32:36.714Z,12.17
2022-09-21T07:35:13.728Z,12.21
2022-09-21T07:38:05.167Z,12.26
2022-09-21T07:41:09.347Z,12.34
2022-09-21T07:48:47.109Z,12.56
2022-09-21T07:51:24.205Z,12.79
2022-09-21T07:54:04.658Z,12.92
2022-09-21T07:56:52.298Z,13.09
2022-09-21T08:00:08.462Z,13.43
2022-09-21T08:03:24.543Z,13.87
2022-09-21T08:06:30.774Z,14.26
2022-09-21T08:09:27.974Z,14.54
2022-09-21T08:12:55.944Z,14.79
2022-09-21T08:16:20.613Z,15.01
2022-09-21T08:23:18.902Z,15.31
2022-09-21T08:26:49.122Z,15.52
2022-09-21T08:30:37.221Z,15.67
2022-09-21T08:33:38.191Z,16.03
2022-09-21T08:36:10.708Z,16.47
2022-09-21T08:38:49.556Z,17.03
2022-09-21T08:41:27.137Z,17.58
2022-09-21T08:44:27.145Z,18.01
2022-09-21T08:47:25.744Z,18.13
2022-09-21T08:50:04.623Z,18.45
2022-09-21T08:53:00.145Z,18.75
2022-09-21T08:56:06.177Z,18.63
2022-09-21T08:59:00.601Z,18.29
2022-09-21T09:02:08.798Z,18.01
2022-09-21T09:05:21.190Z,17.71
2022-09-21T09:08:16.741Z,17.37
2022-09-21T09:11:26.608Z,17.12
2022-09-21T09:14:21.478Z,16.92
2022-09-21T09:17:19.048Z,16.87
2022-09-21T09:20:13.070Z,17.15
2022-09-21T09:23:29.886Z,17.65
2022-09-21T09:26:51.404Z,18.31
2022-09-21T09:30:26.595Z,18.43
2022-09-21T09:34:22.887Z,18.14
2022-09-21T09:37:10.654Z,17.85
2022-09-21T09:39:42.615Z,17.85
2022-09-21T09:42:41.228Z,18.23
2022-09-21T09:48:54.265Z,18.38
2022-09-21T09:51:30.833Z,18.74
2022-09-21T09:54:20.505Z,19.28
2022-09-21T09:56:56.964Z,19.35
2022-09-21T10:00:23.977Z,19.01
2022-09-21T10:03:04.089Z,18.76
2022-09-21T10:05:38.874Z,19.02
2022-09-21T10:08:50.329Z,19.48
2022-09-21T10:11:59.096Z,19.89
2022-09-21T10:14:38.047Z,20.37
2022-09-21T10:17:22.532Z,20.71
2022-09-21T10:20:21.304Z,20.80
2022-09-21T10:23:14.534Z,20.57
2022-09-21T10:25:54.839Z,20.08
2022-09-21T10:28:29.911Z,19.67
2022-09-21T10:31:25.167Z,19.40
2022-09-21T10:34:13.587Z,19.14
2022-09-21T10:36:56.087Z,19.32
2022-09-21T10:39:28.577Z,19.39
2022-09-21T10:42:26.663Z,19.12
2022-09-21T10:45:25.118Z,18.72
2022-09-21T10:48:15.216Z,18.31
2022-09-21T10:50:54.221Z,18.18
2022-09-21T10:53:32.793Z,18.10
2022-09-21T10:56:17.619Z,17.89
2022-09-21T10:59:42.006Z,17.45
2022-09-21T11:02:33.239Z,16.86
2022-09-21T11:05:20.029Z,16.35
2022-09-21T11:08:22.911Z,15.96
2022-09-21T11:11:41.974Z,15.60
2022-09-21T11:14:23.045Z,15.25
2022-09-21T11:17:10.215Z,15.05
2022-09-21T11:19:57.979Z,14.92
2022-09-21T11:22:45.710Z,14.88
2022-09-21T11:25:48.835Z,14.88
2022-09-21T11:29:27.926Z,14.90
2022-09-21T11:32:19.412Z,14.94
2022-09-21T11:35:27.119Z,15.08
2022-09-21T11:38:30.945Z,15.27
2022-09-21T11:41:42.837Z,15.42
2022-09-21T11:44:29.791Z,15.50
2022-09-21T11:47:43.222Z,15.50
2022-09-21T11:50:33.582Z,15.47
2022-09-21T11:53:29.274Z,15.40
2022-09-21T11:56:54.462Z,15.32
2022-09-21T11:59:55.390Z,15.17
2022-09-21T12:05:42.321Z,15.18
2022-09-21T12:08:43.858Z,15.31
2022-09-21T12:11:56.198Z,15.49
2022-09-21T12:14:43.700Z,15.65
2022-09-21T12:18:10.266Z,15.67
2022-09-21T12:21:19.990Z,15.64
2022-09-21T12:24:13.152Z,15.62
2022-09-21T12:27:20.008Z,15.61
2022-09-21T12:30:16.603Z,15.64
2022-09-21T12:32:52.231Z,15.70
2022-09-21T12:38:38.114Z,15.86
2022-09-21T12:41:53.685Z,15.96
2022-09-21T12:45:03.169Z,16.05
2022-09-21T12:51:06.419Z,16.21
2022-09-21T12:53:52.950Z,16.23
2022-09-21T12:56:38.531Z,16.22
2022-09-21T12:59:39.389Z,16.17
2022-09-21T13:02:47.911Z,16.09
2022-09-21T13:09:30.567Z,15.98
2022-09-21T13:12:44.941Z,16.01
2022-09-21T13:15:37.965Z,16.00
2022-09-21T13:18:35.138Z,15.85
2022-09-21T13:21:27.049Z,15.70
2022-09-21T13:24:11.498Z,15.62
2022-09-21T13:27:05.394Z,15.53
2022-09-21T13:30:43.564Z,15.40
2022-09-21T13:33:23.721Z,15.33
2022-09-21T13:36:39.313Z,15.29
2022-09-21T13:39:26.098Z,15.27
2022-09-21T13:42:50.251Z,15.25
2022-09-21T13:45:39.858Z,15.24
2022-09-21T13:48:28.911Z,15.28
2022-09-21T13:51:14.409Z,15.35
2022-09-21T13:54:14.543Z,15.44
2022-09-21T13:57:12.661Z,15.50
2022-09-21T13:59:47.037Z,15.55
2022-09-21T14:03:05.814Z,15.62
2022-09-21T14:06:42.577Z,15.65
2022-09-21T14:09:49.646Z,15.73
2022-09-21T14:13:04.295Z,15.82
2022-09-21T14:15:43.549Z,15.92
2022-09-21T14:18:38.364Z,15.98
2022-09-21T14:21:25.690Z,15.91
2022-09-21T14:25:03.779Z,15.89
2022-09-21T14:28:13.835Z,15.81
2022-09-21T14:30:57.103Z,15.75
2022-09-21T14:33:49.359Z,15.74
2022-09-21T14:36:55.613Z,15.74
2022-09-21T14:39:44.605Z,15.71
2022-09-21T14:42:37.548Z,15.70
2022-09-21T14:45:23.633Z,15.69
2022-09-21T14:48:38.407Z,15.65
2022-09-21T14:52:12.597Z,15.58
2022-09-21T14:55:25.104Z,15.50
2022-09-21T14:58:25.099Z,15.49
2022-09-21T15:01:26.100Z,15.51
2022-09-21T15:04:10.144Z,15.58
2022-09-21T15:07:12.684Z,15.64
2022-09-21T15:10:34.629Z,15.69
2022-09-21T15:13:36.703Z,15.76
2022-09-21T15:16:24.238Z,15.87
2022-09-21T15:19:27.207Z,15.93
2022-09-21T15:22:22.847Z,15.97
2022-09-21T15:25:03.224Z,15.96
2022-09-21T15:27:46.352Z,15.95
2022-09-21T15:30:36.370Z,15.86
2022-09-21T15:33:22.131Z,15.55
2022-09-21T15:36:15.232Z,15.15
2022-09-21T15:38:52.955Z,14.78
2022-09-21T15:41:47.777Z,14.46
2022-09-21T15:44:42.976Z,14.13
2022-09-21T15:47:20.328Z,13.86
2022-09-21T15:50:01.674Z,13.71
2022-09-21T15:52:43.071Z,13.64
2022-09-21T15:55:23.190Z,13.61
2022-09-21T15:57:57.801Z,13.56
2022-09-21T16:00:39.030Z,13.51
2022-09-21T16:03:21.438Z,13.48
2022-09-21T16:05:54.717Z,13.46
2022-09-21T16:08:36.134Z,13.45
2022-09-21T16:11:35.469Z,13.43
2022-09-21T16:14:39.543Z,13.41
2022-09-21T16:17:27.904Z,13.39
2022-09-21T16:20:13.915Z,13.38
2022-09-21T16:22:47.867Z,13.36
2022-09-21T16:25:20.250Z,13.36
2022-09-21T16:28:06.277Z,13.34
2022-09-21T16:30:53.171Z,13.30
2022-09-21T16:33:46.632Z,13.28
2022-09-21T16:37:23.840Z,13.24
2022-09-21T16:39:35.266Z,13.15
2022-09-21T16:42:06.104Z,13.14
2022-09-21T16:44:41.252Z,13.14
2022-09-21T16:47:25.765Z,13.09
2022-09-21T16:50:01.713Z,13.05
2022-09-21T16:52:31.655Z,13.03
2022-09-21T16:55:01.321Z,13.01
2022-09-21T16:57:30.696Z,12.98
2022-09-21T17:00:00.235Z,12.94
2022-09-21T17:02:31.676Z,12.89
2022-09-21T17:05:02.336Z,12.83
2022-09-21T17:07:34.356Z,12.77
2022-09-21T17:10:15.157Z,12.70
2022-09-21T17:12:47.956Z,12.51
2022-09-21T17:15:20.207Z,12.48
2022-09-21T17:18:05.132Z,12.46
2022-09-21T17:20:46.053Z,12.40
2022-09-21T17:23:25.968Z,12.33
2022-09-21T17:26:04.920Z,12.29
2022-09-21T17:28:58.596Z,12.20
2022-09-21T17:31:55.541Z,12.15
2022-09-21T17:34:53.690Z,12.07
2022-09-21T17:37:51.025Z,12.00
2022-09-21T17:40:39.941Z,11.95
2022-09-21T17:43:22.586Z,11.92
2022-09-21T17:46:15.727Z,11.90
2022-09-21T17:48:46.136Z,11.85
2022-09-21T17:51:38.143Z,11.81
2022-09-21T17:54:08.285Z,11.77
2022-09-21T17:57:12.986Z,11.76
2022-09-21T17:59:48.866Z,11.73
2022-09-21T18:02:26.421Z,11.71
2022-09-21T18:05:09.430Z,11.69
2022-09-21T18:07:41.026Z,11.68
2022-09-21T18:10:25.160Z,11.66
2022-09-21T18:13:07.812Z,11.61
2022-09-21T18:16:12.770Z,11.59
2022-09-21T18:18:58.509Z,11.52
2022-09-21T18:21:29.331Z,11.49
2022-09-21T18:24:33.011Z,11.47
2022-09-21T18:27:16.711Z,11.43
2022-09-21T18:29:53.847Z,11.37
2022-09-21T18:32:51.531Z,11.35
2022-09-21T18:35:56.593Z,11.31
2022-09-21T18:39:14.515Z,11.25
2022-09-21T18:41:59.259Z,11.19
2022-09-21T18:44:50.225Z,11.15
2022-09-21T18:47:33.793Z,11.12
2022-09-21T18:50:20.203Z,11.10
2022-09-21T18:53:26.355Z,11.07
2022-09-21T18:56:03.579Z,11.02
2022-09-21T18:58:39.718Z,10.99
2022-09-21T19:01:19.088Z,10.95
2022-09-21T19:03:49.914Z,10.91
2022-09-21T19:06:55.343Z,10.88
2022-09-21T19:10:04.149Z,10.81
2022-09-21T19:13:28.536Z,10.73
2022-09-21T19:16:07.496Z,10.64
2022-09-21T19:18:49.427Z,10.60
2022-09-21T19:22:03.490Z,10.55
2022-09-21T19:24:43.355Z,10.39
2022-09-21T19:27:40.821Z,10.36
2022-09-21T19:30:16.791Z,10.35
2022-09-21T19:33:00.812Z,10.33
2022-09-21T19:35:36.828Z,10.31
2022-09-21T19:38:10.537Z,10.31
2022-09-21T19:40:53.156Z,10.26
2022-09-21T19:43:42.489Z,10.26
2022-09-21T19:46:34.211Z,10.23
2022-09-21T19:49:18.250Z,10.19
2022-09-21T19:51:53.557Z,10.15
2022-09-21T19:54:45.413Z,10.13
2022-09-21T19:57:38.251Z,10.10
2022-09-21T20:00:14.536Z,10.09
2022-09-21T20:03:16.971Z,10.11
2022-09-21T20:06:22.297Z,10.09
2022-09-21T20:09:24.044Z,10.10
2022-09-21T20:12:13.730Z,10.10
2022-09-21T20:15:08.049Z,10.13
2022-09-21T20:18:02.983Z,10.14
2022-09-21T20:20:32.414Z,10.14
2022-09-21T20:23:03.188Z,10.15
2022-09-21T20:26:00.100Z,10.16
2022-09-21T20:28:29.832Z,10.15
2022-09-21T20:30:59.724Z,10.18
2022-09-21T20:33:31.694Z,10.21
2022-09-21T20:36:02.791Z,10.21
2022-09-21T20:38:34.604Z,10.22
2022-09-21T20:41:05.204Z,10.22
2022-09-21T20:43:35.526Z,10.20
2022-09-21T20:46:08.435Z,10.18
2022-09-21T20:48:41.426Z,10.19
2022-09-21T20:51:11.619Z,10.19
2022-09-21T20:53:43.543Z,10.18
2022-09-21T20:56:16.168Z,10.18
2022-09-21T20:58:46.144Z,10.07
2022-09-21T21:01:27.301Z,10.06
2022-09-21T21:04:13.262Z,10.06
2022-09-21T21:06:47.864Z,10.07
2022-09-21T21:09:19.884Z,10.08
2022-09-21T21:11:52.703Z,10.09
2022-09-21T21:14:26.199Z,10.07
2022-09-21T21:16:55.690Z,10.06
2022-09-21T21:19:35.276Z,10.05
2022-09-21T21:22:05.620Z,10.04
2022-09-21T21:24:44.119Z,10.05
2022-09-21T21:27:27.351Z,10.07
2022-09-21T21:30:01.316Z,10.08
2022-09-21T21:32:38.954Z,10.11
2022-09-21T21:35:09.383Z,10.14
2022-09-21T21:37:46.075Z,10.16
2022-09-21T21:40:20.738Z,10.17
2022-09-21T21:42:58.801Z,10.21
2022-09-21T21:45:30.883Z,10.22
2022-09-21T21:48:00.483Z,10.26
2022-09-21T21:50:29.635Z,10.28
2022-09-21T21:52:58.874Z,10.32
2022-09-21T21:55:28.484Z,10.31
2022-09-21T21:57:57.703Z,10.33
2022-09-21T22:00:27.062Z,10.34
2022-09-21T22:02:56.937Z,10.34
2022-09-21T22:05:26.327Z,10.34
2022-09-21T22:07:55.380Z,10.32
2022-09-21T22:10:25.004Z,10.29
2022-09-21T22:12:57.328Z,10.28
2022-09-21T22:15:26.859Z,10.27
2022-09-21T22:17:56.225Z,10.26
2022-09-21T22:20:25.435Z,10.25
2022-09-21T22:22:54.939Z,10.25
2022-09-21T22:25:28.634Z,10.25
2022-09-21T22:27:57.965Z,10.27
2022-09-21T22:30:27.098Z,10.27
2022-09-21T22:32:56.488Z,10.28
2022-09-21T22:35:25.622Z,10.28
2022-09-21T22:37:56.143Z,10.28
2022-09-21T22:40:25.365Z,10.30
2022-09-21T22:42:54.590Z,10.30
2022-09-21T22:45:26.592Z,10.31
2022-09-21T22:47:55.823Z,10.32
2022-09-21T22:50:25.869Z,10.34
2022-09-21T22:52:55.332Z,10.36
2022-09-21T22:55:25.047Z,10.39
2022-09-21T22:57:54.032Z,10.41
2022-09-21T23:00:23.078Z,10.43
2022-09-21T23:02:57.281Z,10.45
2022-09-21T23:05:26.962Z,10.45
2022-09-21T23:07:56.844Z,10.46
2022-09-21T23:10:27.284Z,10.43
2022-09-21T23:12:58.463Z,10.41
2022-09-21T23:15:29.839Z,10.28
2022-09-21T23:17:58.949Z,10.25
2022-09-21T23:20:28.147Z,10.25
2022-09-21T23:22:57.814Z,10.24
2022-09-21T23:25:27.100Z,10.22
2022-09-21T23:27:57.444Z,10.21
2022-09-21T23:30:26.518Z,10.19
2022-09-21T23:32:55.664Z,10.17
2022-09-21T23:35:24.791Z,10.13
2022-09-21T23:37:54.060Z,10.12
2022-09-21T23:40:24.661Z,10.10
2022-09-21T23:42:53.713Z,10.08
2022-09-21T23:45:23.041Z,10.04
2022-09-21T23:47:52.086Z,10.01
2022-09-21T23:50:21.225Z,9.95
2022-09-21T23:52:50.305Z,9.92
2022-09-21T23:55:19.324Z,9.88
2022-09-21T23:57:48.495Z,9.84
